Time;durP1;ratioP1;P1;durP2;ratioP2;P2;SDS_P1;SDS_P2;PMS_P1;PMS_P2;Temp;Humidity;BMP_temperature;BMP_pressure;BME280_temperature;BME280_humidity;BME280_pressure;Samples;Min_cycle;Max_cycle;Signal;HPM_P1;HPM_P2
2023/04/04 00:02:02;;;;;;;0.10;0.10;;;1.80;99.90;;;;;;5062843;28;20217;-81
2023/04/04 00:04:29;;;;;;;0.10;0.10;;;1.70;99.90;;;;;;5064353;28;20215;-80
2023/04/04 00:06:55;;;;;;;0.00;0.00;;;1.70;99.90;;;;;;5058770;28;20201;-80
2023/04/04 00:09:20;;;;;;;0.10;0.10;;;1.80;99.90;;;;;;5060031;28;20184;-81
2023/04/04 00:11:46;;;;;;;0.10;0.10;;;1.80;99.90;;;;;;5066402;28;20206;-80
2023/04/04 00:14:12;;;;;;;0.10;0.10;;;1.70;99.90;;;;;;5059598;28;20287;-81
2023/04/04 00:16:38;;;;;;;0.10;0.10;;;1.70;99.90;;;;;;5060907;28;20194;-81
2023/04/04 00:19:03;;;;;;;0.10;0.10;;;1.60;99.90;;;;;;5065411;28;20191;-80
2023/04/04 00:21:29;;;;;;;0.00;0.00;;;1.60;99.90;;;;;;5057861;28;20210;-80
2023/04/04 00:23:56;;;;;;;0.10;0.10;;;1.60;99.90;;;;;;5061121;28;20217;-80
2023/04/04 00:26:22;;;;;;;0.10;0.10;;;1.60;99.90;;;;;;5061459;28;20211;-79
2023/04/04 00:28:47;;;;;;;0.00;0.00;;;1.50;99.90;;;;;;5063341;28;20252;-80
2023/04/04 00:31:13;;;;;;;0.00;0.00;;;1.50;99.90;;;;;;5065517;28;20207;-80
2023/04/04 00:33:38;;;;;;;0.10;0.10;;;1.60;99.90;;;;;;5065273;28;20187;-80
2023/04/04 00:36:04;;;;;;;0.10;0.10;;;1.50;99.90;;;;;;5063482;28;20591;-80
2023/04/04 00:38:30;;;;;;;0.10;0.10;;;1.50;99.90;;;;;;5061594;28;20194;-80
2023/04/04 00:40:56;;;;;;;0.07;0.07;;;1.50;99.90;;;;;;5065374;28;21018;-80
2023/04/04 00:43:22;;;;;;;1.83;1.83;;;1.50;99.90;;;;;;5062008;28;20238;-80
2023/04/04 00:45:48;;;;;;;0.10;0.10;;;1.50;99.90;;;;;;5061850;28;20210;-80
2023/04/04 00:48:14;;;;;;;0.07;0.07;;;1.50;99.90;;;;;;5057327;28;20183;-80
2023/04/04 00:50:40;;;;;;;0.10;0.10;;;1.50;99.90;;;;;;5060837;28;20249;-81
2023/04/04 00:53:06;;;;;;;0.10;0.10;;;1.50;99.90;;;;;;5056109;28;20210;-80
2023/04/04 00:55:31;;;;;;;0.00;0.00;;;1.50;99.90;;;;;;5059872;28;20184;-80
2023/04/04 00:57:58;;;;;;;0.10;0.10;;;1.40;99.90;;;;;;5059048;28;20587;-80
2023/04/04 01:00:24;;;;;;;0.10;0.10;;;1.40;99.90;;;;;;5060865;28;20319;-80
2023/04/04 01:02:50;;;;;;;0.10;0.10;;;1.40;99.90;;;;;;5061236;28;20317;-81
2023/04/04 01:05:16;;;;;;;0.10;0.10;;;1.40;99.90;;;;;;5061223;28;20201;-80
2023/04/04 01:07:41;;;;;;;0.00;0.00;;;1.40;99.90;;;;;;5066557;28;21008;-79
2023/04/04 01:10:08;;;;;;;0.00;0.00;;;1.30;99.90;;;;;;5064998;28;20711;-80
2023/04/04 01:12:34;;;;;;;0.00;0.00;;;1.30;99.90;;;;;;5067138;28;20225;-80
2023/04/04 01:14:59;;;;;;;0.10;0.10;;;1.40;99.90;;;;;;5062071;28;20174;-81
2023/04/04 01:17:26;;;;;;;0.10;0.10;;;1.30;99.90;;;;;;5065166;28;20179;-83
2023/04/04 01:20:07;;;;;;;0.10;0.10;;;1.30;99.90;;;;;;5065564;28;20980;-81
2023/04/04 01:22:34;;;;;;;0.10;0.10;;;1.40;99.90;;;;;;5064124;28;20205;-81
2023/04/04 01:25:03;;;;;;;0.00;0.00;;;1.30;99.90;;;;;;5066424;28;20270;-81
2023/04/04 01:27:29;;;;;;;0.10;0.10;;;1.30;99.90;;;;;;5063448;28;20278;-81
2023/04/04 01:29:54;;;;;;;0.10;0.10;;;1.20;99.90;;;;;;5066065;28;20265;-81
2023/04/04 01:32:33;;;;;;;0.10;0.10;;;1.20;99.90;;;;;;5059529;28;20207;-81
2023/04/04 01:35:20;;;;;;;0.10;0.10;;;1.20;99.90;;;;;;5064934;28;20184;-80
2023/04/04 01:38:06;;;;;;;0.00;0.00;;;1.30;99.90;;;;;;5063674;28;20250;-81
2023/04/04 01:40:38;;;;;;;0.10;0.10;;;1.20;99.90;;;;;;5066561;28;20188;-80
2023/04/04 01:43:04;;;;;;;0.10;0.10;;;1.20;99.90;;;;;;5066317;28;20203;-80
2023/04/04 01:45:31;;;;;;;0.10;0.10;;;1.20;99.90;;;;;;5063748;28;20184;-80
2023/04/04 01:47:57;;;;;;;0.10;0.10;;;1.20;99.90;;;;;;5064102;28;20181;-81
2023/04/04 01:50:22;;;;;;;0.10;0.10;;;1.10;99.90;;;;;;5065107;28;20616;-81
2023/04/04 01:52:48;;;;;;;0.10;0.10;;;1.10;99.90;;;;;;5065893;28;20281;-81
2023/04/04 01:55:14;;;;;;;0.10;0.10;;;1.20;99.90;;;;;;5063807;28;20210;-81
2023/04/04 01:57:40;;;;;;;0.10;0.10;;;1.10;99.90;;;;;;5067015;28;20230;-81
2023/04/04 02:00:06;;;;;;;0.10;0.10;;;1.10;99.90;;;;;;5063373;28;20228;-79
2023/04/04 02:02:32;;;;;;;0.10;0.10;;;1.10;99.90;;;;;;5065206;28;20225;-81
2023/04/04 02:04:57;;;;;;;0.10;0.10;;;1.10;99.90;;;;;;5066675;28;20282;-80
2023/04/04 02:07:23;;;;;;;0.00;0.00;;;1.10;99.90;;;;;;5059139;28;20189;-82
2023/04/04 02:09:48;;;;;;;0.30;0.30;;;1.10;99.90;;;;;;5061326;28;20730;-81
2023/04/04 02:12:14;;;;;;;0.10;0.10;;;1.00;99.90;;;;;;5062896;28;20216;-81
2023/04/04 02:14:40;;;;;;;0.03;0.03;;;1.00;99.90;;;;;;5064552;28;20235;-81
2023/04/04 02:17:05;;;;;;;0.10;0.10;;;1.00;99.90;;;;;;5062979;28;20273;-80
2023/04/04 02:19:32;;;;;;;0.10;0.10;;;1.00;99.90;;;;;;5066315;28;20196;-80
2023/04/04 02:21:57;;;;;;;0.10;0.10;;;1.00;99.90;;;;;;5063069;28;20266;-81
2023/04/04 02:24:23;;;;;;;0.10;0.10;;;1.00;99.90;;;;;;5068287;28;20210;-80
2023/04/04 02:26:49;;;;;;;0.10;0.10;;;1.00;99.90;;;;;;5068160;28;20194;-81
2023/04/04 02:29:15;;;;;;;0.10;0.10;;;0.90;99.90;;;;;;5066786;28;21215;-81
2023/04/04 02:31:41;;;;;;;0.10;0.10;;;1.00;99.90;;;;;;5063439;28;20751;-81
2023/04/04 02:34:07;;;;;;;0.10;0.10;;;0.90;99.90;;;;;;5065104;28;20173;-81
2023/04/04 02:36:32;;;;;;;0.10;0.10;;;1.00;99.90;;;;;;5064470;28;20186;-81
2023/04/04 02:38:58;;;;;;;0.03;0.03;;;0.90;99.90;;;;;;5067894;28;20646;-80
2023/04/04 02:41:23;;;;;;;0.10;0.10;;;0.90;99.90;;;;;;5065036;28;20193;-81
2023/04/04 02:43:50;;;;;;;0.10;0.10;;;0.90;99.90;;;;;;5063482;28;20213;-79
2023/04/04 02:46:15;;;;;;;0.10;0.10;;;0.90;99.90;;;;;;5062662;28;20187;-80
2023/04/04 02:48:41;;;;;;;0.10;0.10;;;0.90;99.90;;;;;;5064984;28;20552;-81
2023/04/04 02:51:06;;;;;;;0.10;0.10;;;0.90;99.90;;;;;;5067061;28;20210;-80
2023/04/04 02:53:32;;;;;;;0.10;0.10;;;0.80;99.90;;;;;;5062702;28;20200;-81
2023/04/04 02:55:58;;;;;;;0.10;0.10;;;0.90;99.90;;;;;;5063462;28;20204;-81
2023/04/04 02:58:23;;;;;;;0.10;0.10;;;0.90;99.90;;;;;;5064345;28;20181;-80
2023/04/04 03:00:55;;;;;;;0.10;0.10;;;0.90;99.90;;;;;;5064445;28;20624;-81
2023/04/04 03:03:20;;;;;;;0.10;0.10;;;0.90;99.90;;;;;;5062859;28;20224;-81
2023/04/04 03:05:48;;;;;;;0.00;0.00;;;1.00;99.90;;;;;;5063899;28;20189;-81
2023/04/04 03:08:14;;;;;;;0.10;0.10;;;0.90;99.90;;;;;;5058085;28;20184;-80
2023/04/04 03:10:39;;;;;;;0.10;0.10;;;0.90;99.90;;;;;;5068114;28;20190;-81
2023/04/04 03:13:05;;;;;;;0.10;0.10;;;0.80;99.90;;;;;;5061182;28;20189;-81
2023/04/04 03:15:30;;;;;;;0.10;0.10;;;0.90;99.90;;;;;;5064309;28;20197;-80
2023/04/04 03:17:57;;;;;;;0.10;0.10;;;0.90;99.90;;;;;;5065365;28;20193;-81
2023/04/04 03:20:23;;;;;;;0.10;0.10;;;0.90;99.90;;;;;;5060908;28;20186;-80
2023/04/04 03:22:48;;;;;;;0.10;0.10;;;0.90;99.90;;;;;;5059726;28;20675;-80
2023/04/04 03:25:15;;;;;;;0.10;0.10;;;0.90;99.90;;;;;;5061690;28;20206;-80
2023/04/04 03:27:40;;;;;;;0.10;0.10;;;0.80;99.90;;;;;;5064035;28;20214;-80
2023/04/04 03:30:07;;;;;;;0.10;0.10;;;0.90;99.90;;;;;;5063851;28;20190;-80
2023/04/04 03:32:33;;;;;;;0.03;0.03;;;0.90;99.90;;;;;;5066347;28;21029;-81
2023/04/04 03:34:59;;;;;;;0.10;0.10;;;0.90;99.90;;;;;;5060574;28;20277;-81
2023/04/04 03:37:24;;;;;;;0.10;0.10;;;0.80;99.90;;;;;;5063789;28;20210;-81
2023/04/04 03:39:50;;;;;;;0.00;0.00;;;0.80;99.90;;;;;;5065897;28;20193;-81
2023/04/04 03:42:15;;;;;;;0.10;0.10;;;0.80;99.90;;;;;;5064182;28;20311;-81
2023/04/04 03:44:41;;;;;;;0.20;0.20;;;0.70;99.90;;;;;;5064856;28;20315;-80
2023/04/04 03:47:07;;;;;;;0.10;0.10;;;0.80;99.90;;;;;;5058729;28;20242;-81
2023/04/04 03:49:36;;;;;;;0.10;0.10;;;0.80;99.90;;;;;;5060580;28;20185;-80
2023/04/04 03:52:02;;;;;;;0.10;0.10;;;0.80;99.90;;;;;;5060457;28;20205;-81
2023/04/04 03:54:28;;;;;;;0.10;0.10;;;0.80;99.90;;;;;;5061709;28;20258;-81
2023/04/04 03:56:54;;;;;;;0.10;0.10;;;0.80;99.90;;;;;;5062423;28;21007;-81
2023/04/04 03:59:20;;;;;;;0.10;0.10;;;0.80;99.90;;;;;;5064143;28;20220;-81
2023/04/04 04:01:46;;;;;;;0.10;0.10;;;0.70;99.90;;;;;;5064075;28;20612;-81
2023/04/04 04:04:11;;;;;;;0.10;0.10;;;0.60;99.90;;;;;;5062364;28;20286;-81
2023/04/04 04:06:37;;;;;;;0.20;0.20;;;0.70;99.90;;;;;;5062311;28;20213;-82
2023/04/04 04:09:02;;;;;;;0.10;0.10;;;0.60;99.90;;;;;;5060961;28;20220;-80
2023/04/04 04:11:28;;;;;;;0.10;0.10;;;0.60;99.90;;;;;;5063404;28;20197;-80
2023/04/04 04:13:54;;;;;;;0.10;0.10;;;0.60;99.90;;;;;;5064832;28;20202;-80
2023/04/04 04:16:21;;;;;;;0.10;0.10;;;0.60;99.90;;;;;;5063153;28;20228;-81
2023/04/04 04:18:47;;;;;;;0.00;0.00;;;0.60;99.90;;;;;;5060737;28;20193;-81
2023/04/04 04:21:12;;;;;;;0.00;0.00;;;0.60;99.90;;;;;;5062951;28;20205;-81
2023/04/04 04:23:38;;;;;;;0.10;0.10;;;0.60;99.90;;;;;;5062422;28;20258;-81
2023/04/04 04:26:04;;;;;;;0.10;0.10;;;0.60;99.90;;;;;;5061190;28;20652;-81
2023/04/04 04:28:29;;;;;;;0.10;0.10;;;0.60;99.90;;;;;;5056519;28;20196;-80
2023/04/04 04:30:55;;;;;;;0.10;0.10;;;0.60;99.90;;;;;;5060197;28;21220;-81
2023/04/04 04:33:28;;;;;;;0.10;0.10;;;0.60;99.90;;;;;;5058625;28;20904;-81
2023/04/04 04:35:59;;;;;;;0.10;0.10;;;0.50;99.90;;;;;;5061676;28;20242;-81
2023/04/04 04:38:24;;;;;;;0.10;0.10;;;0.60;99.90;;;;;;5058036;28;20262;-80
2023/04/04 04:40:50;;;;;;;0.10;0.10;;;0.60;99.90;;;;;;5059205;28;20195;-80
2023/04/04 04:43:15;;;;;;;0.10;0.10;;;0.60;99.90;;;;;;5066457;28;20284;-81
2023/04/04 04:45:41;;;;;;;0.10;0.10;;;0.60;99.90;;;;;;5064990;28;20675;-80
2023/04/04 04:48:07;;;;;;;0.10;0.10;;;0.70;99.90;;;;;;5064623;28;20604;-80
2023/04/04 04:50:32;;;;;;;0.00;0.00;;;0.60;99.90;;;;;;5063668;28;20187;-79
2023/04/04 04:52:58;;;;;;;0.10;0.10;;;0.60;99.90;;;;;;5064087;28;20728;-78
2023/04/04 04:55:23;;;;;;;0.07;0.07;;;0.60;99.90;;;;;;5061907;28;20765;-79
2023/04/04 04:57:49;;;;;;;0.10;0.10;;;0.60;99.90;;;;;;5059239;28;20223;-79
2023/04/04 05:00:16;;;;;;;0.10;0.10;;;0.60;99.90;;;;;;5059654;28;20275;-79
2023/04/04 05:02:41;;;;;;;0.10;0.10;;;0.60;99.90;;;;;;5062713;28;20716;-79
2023/04/04 05:05:07;;;;;;;0.10;0.10;;;0.60;99.90;;;;;;5061788;28;20238;-79
2023/04/04 05:07:32;;;;;;;0.10;0.10;;;0.60;99.90;;;;;;5064659;28;20200;-79
2023/04/04 05:09:58;;;;;;;0.10;0.10;;;0.70;99.90;;;;;;5058218;28;20189;-79
2023/04/04 05:12:23;;;;;;;0.10;0.10;;;0.70;99.90;;;;;;5061291;28;20701;-81
2023/04/04 05:14:49;;;;;;;0.10;0.10;;;0.70;99.90;;;;;;5066779;28;20646;-80
2023/04/04 05:17:14;;;;;;;0.10;0.10;;;0.80;99.90;;;;;;5063056;28;20185;-83
2023/04/04 05:19:40;;;;;;;0.10;0.10;;;0.80;99.90;;;;;;5063056;28;20189;-83
2023/04/04 05:22:07;;;;;;;0.10;0.10;;;0.90;99.90;;;;;;5085029;28;20655;-83
2023/04/04 05:24:32;;;;;;;0.03;0.03;;;0.90;99.90;;;;;;5065533;28;20197;-83
2023/04/04 05:26:58;;;;;;;0.10;0.10;;;1.00;99.90;;;;;;5066180;28;20547;-83
2023/04/04 05:29:24;;;;;;;0.10;0.10;;;1.00;99.90;;;;;;5061514;28;20174;-83
2023/04/04 05:31:50;;;;;;;0.10;0.10;;;1.00;99.90;;;;;;5063349;28;20210;-82
2023/04/04 05:34:15;;;;;;;0.10;0.10;;;1.10;99.90;;;;;;5065891;28;20638;-83
2023/04/04 05:36:41;;;;;;;0.10;0.10;;;1.20;99.90;;;;;;5065320;28;20189;-82
2023/04/04 05:39:06;;;;;;;0.00;0.00;;;1.20;99.90;;;;;;5063768;28;20229;-80
2023/04/04 05:41:32;;;;;;;0.10;0.10;;;1.30;99.90;;;;;;5067432;28;20240;-80
2023/04/04 05:43:58;;;;;;;0.10;0.10;;;1.30;99.90;;;;;;5063364;28;20202;-80
2023/04/04 05:46:24;;;;;;;0.10;0.10;;;1.40;99.90;;;;;;5063361;28;20597;-82
2023/04/04 05:48:50;;;;;;;0.10;0.10;;;1.50;99.90;;;;;;5063519;28;20185;-80
2023/04/04 05:51:16;;;;;;;0.10;0.10;;;1.50;99.90;;;;;;5062306;28;20195;-81
2023/04/04 05:53:44;;;;;;;0.10;0.10;;;1.60;99.90;;;;;;5064422;28;20187;-81
2023/04/04 05:56:13;;;;;;;0.10;0.10;;;1.70;99.90;;;;;;5067048;28;20835;-80
2023/04/04 05:58:38;;;;;;;0.10;0.10;;;1.70;99.90;;;;;;5068145;28;20297;-80
2023/04/04 06:01:07;;;;;;;0.10;0.10;;;1.80;99.90;;;;;;5061853;28;20694;-80
2023/04/04 06:03:33;;;;;;;0.10;0.10;;;1.90;99.90;;;;;;5064482;28;20221;-80
2023/04/04 06:06:03;;;;;;;0.10;0.10;;;2.00;99.90;;;;;;5067698;28;20188;-79
2023/04/04 06:08:29;;;;;;;0.00;0.00;;;2.00;99.90;;;;;;5065895;28;20274;-80
2023/04/04 06:10:54;;;;;;;0.10;0.10;;;2.10;99.90;;;;;;5066702;28;20180;-80
2023/04/04 06:13:20;;;;;;;0.10;0.10;;;2.20;99.90;;;;;;5068332;28;20202;-80
2023/04/04 06:15:46;;;;;;;0.10;0.10;;;2.40;99.90;;;;;;5063116;28;20191;-80
2023/04/04 06:18:11;;;;;;;0.10;0.10;;;2.50;99.90;;;;;;5063602;28;20693;-81
2023/04/04 06:20:37;;;;;;;0.10;0.10;;;2.60;99.90;;;;;;5064270;28;20666;-80
2023/04/04 06:23:03;;;;;;;0.10;0.10;;;2.60;99.90;;;;;;5062637;28;20222;-80
2023/04/04 06:25:30;;;;;;;0.10;0.10;;;2.60;99.90;;;;;;5061069;28;20615;-80
2023/04/04 06:27:55;;;;;;;0.00;0.00;;;2.70;99.90;;;;;;5062503;28;20181;-81
2023/04/04 06:30:21;;;;;;;0.10;0.10;;;2.80;99.90;;;;;;5054298;28;20659;-82
2023/04/04 06:32:47;;;;;;;0.10;0.10;;;2.90;99.90;;;;;;5062200;28;20349;-81
2023/04/04 06:35:12;;;;;;;0.10;0.10;;;3.10;99.90;;;;;;5057735;28;20185;-82
2023/04/04 06:37:38;;;;;;;0.10;0.10;;;3.20;99.90;;;;;;5064604;28;20187;-82
2023/04/04 06:40:04;;;;;;;1.07;1.07;;;3.20;99.90;;;;;;5066800;28;20177;-84
2023/04/04 06:42:30;;;;;;;0.03;0.03;;;3.20;99.90;;;;;;5063529;28;20200;-81
2023/04/04 06:44:55;;;;;;;0.00;0.00;;;3.30;99.90;;;;;;5061197;28;20272;-80
2023/04/04 06:47:21;;;;;;;0.10;0.10;;;3.50;99.90;;;;;;5059944;28;20180;-80
2023/04/04 06:49:46;;;;;;;0.10;0.10;;;3.50;99.90;;;;;;5061782;28;20722;-80
2023/04/04 06:52:12;;;;;;;0.10;0.10;;;3.50;99.90;;;;;;5059410;28;20742;-80
2023/04/04 06:54:38;;;;;;;0.10;0.10;;;3.40;99.90;;;;;;5061642;28;20636;-80
2023/04/04 06:57:03;;;;;;;0.10;0.10;;;3.90;99.90;;;;;;5059196;28;20233;-80
2023/04/04 06:59:29;;;;;;;0.10;0.10;;;3.90;99.90;;;;;;5061452;28;20181;-81
2023/04/04 07:01:56;;;;;;;0.20;0.20;;;3.80;99.90;;;;;;5057750;28;20207;-81
2023/04/04 07:04:22;;;;;;;0.10;0.10;;;3.80;99.90;;;;;;5077751;28;20718;-81
2023/04/04 07:06:48;;;;;;;0.10;0.10;;;3.70;99.90;;;;;;5060306;28;20179;-80
2023/04/04 07:09:14;;;;;;;0.10;0.10;;;3.60;99.90;;;;;;5058444;28;20177;-81
2023/04/04 07:11:39;;;;;;;0.10;0.10;;;3.40;99.90;;;;;;5060752;28;20205;-79
2023/04/04 07:14:05;;;;;;;0.00;0.00;;;3.40;99.90;;;;;;5063184;28;20234;-79
2023/04/04 07:16:31;;;;;;;0.10;0.10;;;3.50;99.90;;;;;;5061251;28;20188;-79
2023/04/04 07:18:56;;;;;;;0.10;0.10;;;3.60;99.90;;;;;;5058279;28;20226;-80
2023/04/04 07:21:23;;;;;;;0.00;0.00;;;3.60;99.90;;;;;;5060229;28;20705;-80
2023/04/04 07:23:50;;;;;;;0.30;0.30;;;3.70;99.90;;;;;;5058007;28;20208;-80
2023/04/04 07:26:15;;;;;;;0.07;0.07;;;3.70;99.90;;;;;;5062344;28;20172;-79
2023/04/04 07:28:41;;;;;;;0.10;0.10;;;3.70;99.90;;;;;;5058404;28;20211;-80
2023/04/04 07:31:06;;;;;;;0.10;0.10;;;3.90;99.90;;;;;;5055617;28;20193;-79
2023/04/04 07:33:32;;;;;;;0.10;0.10;;;4.10;99.90;;;;;;5063718;28;20700;-79
2023/04/04 07:36:00;;;;;;;0.10;0.10;;;4.10;99.90;;;;;;5056388;28;20191;-80
2023/04/04 07:38:26;;;;;;;0.10;0.10;;;4.10;99.90;;;;;;5056062;28;20183;-80
2023/04/04 07:40:52;;;;;;;0.10;0.10;;;4.10;99.90;;;;;;5056337;28;20681;-79
2023/04/04 07:43:17;;;;;;;0.10;0.10;;;4.40;99.90;;;;;;5057334;28;20205;-80
2023/04/04 07:45:43;;;;;;;0.10;0.10;;;4.50;99.90;;;;;;5059937;28;20177;-80
2023/04/04 07:48:08;;;;;;;0.10;0.10;;;4.80;99.90;;;;;;5055717;28;20178;-79
2023/04/04 07:50:34;;;;;;;0.10;0.10;;;4.70;99.90;;;;;;5054779;28;20635;-82
2023/04/04 07:53:00;;;;;;;0.10;0.10;;;4.30;99.90;;;;;;5065992;28;20201;-83
2023/04/04 07:55:26;;;;;;;0.10;0.10;;;4.20;99.90;;;;;;5059396;28;20185;-83
2023/04/04 07:57:51;;;;;;;0.10;0.10;;;4.40;99.90;;;;;;5059293;28;20185;-82
2023/04/04 08:00:20;;;;;;;0.10;0.10;;;4.80;99.90;;;;;;5062992;28;20194;-82
2023/04/04 08:02:57;;;;;;;0.10;0.10;;;4.80;99.90;;;;;;5062006;28;20225;-83
2023/04/04 08:05:23;;;;;;;0.10;0.10;;;5.00;99.90;;;;;;5063089;28;20189;-82
2023/04/04 08:07:50;;;;;;;0.00;0.00;;;5.10;99.90;;;;;;5066101;28;20195;-83
2023/04/04 08:10:16;;;;;;;0.10;0.10;;;5.30;99.90;;;;;;5064737;28;20207;-82
2023/04/04 08:12:43;;;;;;;0.00;0.00;;;5.50;99.90;;;;;;5062878;28;20197;-83
2023/04/04 08:15:09;;;;;;;0.00;0.00;;;5.50;99.90;;;;;;5066274;28;20197;-83
2023/04/04 08:17:36;;;;;;;0.00;0.00;;;5.60;99.90;;;;;;5058503;28;20246;-83
2023/04/04 08:20:02;;;;;;;0.10;0.10;;;5.50;99.90;;;;;;5067102;28;20191;-83
2023/04/04 08:22:28;;;;;;;0.10;0.10;;;5.60;99.90;;;;;;5062742;28;20205;-83
2023/04/04 08:24:54;;;;;;;0.00;0.00;;;5.10;99.90;;;;;;5059994;28;20208;-83
2023/04/04 08:27:20;;;;;;;0.10;0.10;;;5.00;99.90;;;;;;5061224;28;20197;-83
2023/04/04 08:29:46;;;;;;;0.00;0.00;;;4.90;99.90;;;;;;5062931;28;20197;-83
2023/04/04 08:32:13;;;;;;;0.10;0.10;;;5.00;99.90;;;;;;5062437;28;20561;-83
2023/04/04 08:34:40;;;;;;;0.10;0.10;;;5.50;99.90;;;;;;5065473;28;20189;-83
2023/04/04 08:37:06;;;;;;;0.10;0.10;;;6.10;99.90;;;;;;5062711;28;20188;-83
2023/04/04 08:39:31;;;;;;;0.10;0.10;;;6.30;99.90;;;;;;5081490;28;20674;-85
2023/04/04 08:42:06;;;;;;;0.10;0.10;;;6.10;99.90;;;;;;5064376;28;20214;-80
2023/04/04 08:44:33;;;;;;;0.00;0.00;;;6.40;99.90;;;;;;5066318;28;20198;-81
2023/04/04 08:47:02;;;;;;;0.10;0.10;;;6.30;99.90;;;;;;5063610;28;20315;-81
2023/04/04 08:49:30;;;;;;;0.10;0.10;;;5.40;99.90;;;;;;5064335;28;20186;-81
2023/04/04 08:51:57;;;;;;;0.10;0.10;;;5.20;99.90;;;;;;5058507;28;20358;-81
2023/04/04 08:54:25;;;;;;;0.10;0.10;;;5.50;99.90;;;;;;5058285;28;20198;-82
2023/04/04 08:56:51;;;;;;;0.10;0.10;;;5.40;99.90;;;;;;5064320;28;20300;-82
2023/04/04 08:59:17;;;;;;;0.93;0.70;;;5.50;99.90;;;;;;5059825;28;20665;-81
2023/04/04 09:01:43;;;;;;;0.10;0.10;;;5.30;99.90;;;;;;5056563;28;20221;-81
2023/04/04 09:04:09;;;;;;;0.03;0.03;;;5.90;99.90;;;;;;5058913;28;20884;-81
2023/04/04 09:06:36;;;;;;;0.10;0.10;;;5.60;99.90;;;;;;5059610;28;20220;-81
2023/04/04 09:09:02;;;;;;;0.10;0.10;;;5.80;99.90;;;;;;5056975;28;20285;-82
2023/04/04 09:11:30;;;;;;;0.10;0.10;;;6.00;99.90;;;;;;5060177;28;20199;-81
2023/04/04 09:13:57;;;;;;;0.10;0.10;;;6.00;99.90;;;;;;5056641;28;20202;-81
2023/04/04 09:16:23;;;;;;;0.10;0.10;;;6.20;99.90;;;;;;5060308;28;20544;-82
2023/04/04 09:18:48;;;;;;;0.10;0.10;;;6.40;99.90;;;;;;5063256;28;20308;-82
2023/04/04 09:21:14;;;;;;;0.10;0.10;;;6.70;99.90;;;;;;5062498;28;20292;-81
2023/04/04 09:23:42;;;;;;;0.10;0.10;;;7.20;99.90;;;;;;5060412;28;20311;-81
2023/04/04 09:26:08;;;;;;;0.20;0.20;;;7.10;99.90;;;;;;5065066;28;20898;-81
2023/04/04 09:28:34;;;;;;;0.10;0.10;;;6.80;99.90;;;;;;5062169;28;20266;-82
2023/04/04 09:31:04;;;;;;;0.10;0.10;;;6.60;99.90;;;;;;5067273;28;20635;-82
2023/04/04 09:33:31;;;;;;;0.10;0.10;;;6.60;99.90;;;;;;5066762;28;20683;-82
2023/04/04 09:36:02;;;;;;;0.10;0.10;;;6.60;99.90;;;;;;5067243;28;20194;-81
2023/04/04 09:38:29;;;;;;;0.10;0.10;;;6.50;99.90;;;;;;5066636;28;20515;-81
2023/04/04 09:40:55;;;;;;;0.10;0.10;;;6.20;99.90;;;;;;5064017;28;21066;-81
2023/04/04 09:43:23;;;;;;;0.10;0.10;;;6.40;99.90;;;;;;5066574;28;20292;-81
2023/04/04 09:45:49;;;;;;;0.10;0.10;;;6.50;99.90;;;;;;5066305;28;20188;-81
2023/04/04 09:48:26;;;;;;;0.10;0.10;;;6.90;99.90;;;;;;5066926;28;20181;-81
2023/04/04 09:50:51;;;;;;;0.10;0.10;;;6.80;99.90;;;;;;5070710;28;20169;-81
2023/04/04 09:53:17;;;;;;;0.10;0.10;;;7.10;99.90;;;;;;5067529;28;20303;-81
2023/04/04 09:55:52;;;;;;;0.10;0.10;;;6.70;99.90;;;;;;5067640;28;20182;-81
2023/04/04 09:58:28;;;;;;;0.20;0.20;;;6.60;99.90;;;;;;5066633;28;20180;-80
2023/04/04 10:00:59;;;;;;;0.10;0.10;;;7.10;99.90;;;;;;5062099;28;20221;-80
2023/04/04 10:03:26;;;;;;;0.10;0.10;;;7.40;99.90;;;;;;5064154;28;20211;-80
2023/04/04 10:06:03;;;;;;;0.10;0.10;;;7.50;99.90;;;;;;5064902;28;20179;-81
2023/04/04 10:08:29;;;;;;;0.10;0.10;;;7.30;99.90;;;;;;5059875;28;20183;-81
2023/04/04 10:11:01;;;;;;;0.10;0.10;;;7.20;99.90;;;;;;5063486;28;20188;-82
2023/04/04 10:13:32;;;;;;;0.10;0.10;;;6.90;99.90;;;;;;5064351;28;20188;-80
2023/04/04 10:15:59;;;;;;;0.10;0.10;;;6.90;99.90;;;;;;5063735;28;20190;-81
2023/04/04 10:18:29;;;;;;;0.10;0.10;;;6.80;99.90;;;;;;5064884;28;20187;-82
2023/04/04 10:20:57;;;;;;;0.10;0.10;;;7.10;99.90;;;;;;5064785;28;20191;-81
2023/04/04 10:23:26;;;;;;;0.10;0.10;;;7.20;99.90;;;;;;5057092;28;20210;-81
2023/04/04 10:25:52;;;;;;;0.10;0.10;;;7.70;99.90;;;;;;5066140;28;20590;-81
2023/04/04 10:28:19;;;;;;;0.20;0.20;;;7.50;99.90;;;;;;5057235;28;20188;-81
2023/04/04 10:31:16;;;;;;;0.10;0.10;;;7.50;99.90;;;;;;5064682;28;20179;-81
2023/04/04 10:34:04;;;;;;;0.00;0.00;;;7.10;99.90;;;;;;5059718;28;20189;-81
2023/04/04 10:36:36;;;;;;;0.00;0.00;;;7.20;99.90;;;;;;5062226;28;20207;-82
2023/04/04 10:39:36;;;;;;;0.10;0.10;;;7.00;99.90;;;;;;5059018;28;20192;-82
2023/04/04 10:42:05;;;;;;;0.10;0.10;;;7.30;99.90;;;;;;5018885;28;20308;-81
2023/04/04 10:44:32;;;;;;;0.10;0.10;;;7.40;99.90;;;;;;5082276;28;20230;-81
2023/04/04 10:47:15;;;;;;;0.10;0.10;;;7.90;99.90;;;;;;5063917;28;20186;-81
2023/04/04 10:49:46;;;;;;;0.03;0.03;;;7.80;99.90;;;;;;5064599;28;20185;-81
2023/04/04 10:52:15;;;;;;;0.10;0.10;;;7.80;99.90;;;;;;5062826;28;20199;-82
2023/04/04 10:54:42;;;;;;;0.00;0.00;;;7.80;99.90;;;;;;5060934;28;20198;-81
2023/04/04 10:57:09;;;;;;;0.10;0.10;;;7.70;99.90;;;;;;5063440;28;20192;-80
2023/04/04 11:00:04;;;;;;;0.10;0.10;;;7.70;99.90;;;;;;5062236;28;20194;-80
2023/04/04 11:02:54;;;;;;;0.10;0.10;;;7.70;99.90;;;;;;5063904;28;20225;-82
2023/04/04 11:05:31;;;;;;;0.10;0.10;;;7.40;99.90;;;;;;5063371;28;20176;-81
2023/04/04 11:08:02;;;;;;;0.10;0.10;;;7.50;99.90;;;;;;5060977;28;20183;-82
2023/04/04 11:10:29;;;;;;;0.10;0.10;;;7.70;99.90;;;;;;5058939;28;20181;-82
2023/04/04 11:12:57;;;;;;;0.10;0.10;;;7.90;99.90;;;;;;5061626;28;20209;-82
2023/04/04 11:15:24;;;;;;;0.10;0.10;;;7.90;99.90;;;;;;5056199;28;20251;-81
2023/04/04 11:18:06;;;;;;;0.10;0.10;;;8.50;99.90;;;;;;5057597;28;20189;-82
2023/04/04 11:20:34;;;;;;;0.10;0.10;;;8.40;99.90;;;;;;5062754;28;20173;-82
2023/04/04 11:23:07;;;;;;;0.10;0.10;;;8.40;99.90;;;;;;5064222;28;20214;-82
2023/04/04 11:25:36;;;;;;;0.07;0.07;;;8.40;99.90;;;;;;5056183;28;20184;-82
2023/04/04 11:28:07;;;;;;;0.10;0.10;;;8.90;99.90;;;;;;5056734;28;20184;-82
2023/04/04 11:30:46;;;;;;;0.10;0.10;;;8.10;99.90;;;;;;5054924;28;20181;-82
2023/04/04 11:33:13;;;;;;;0.10;0.10;;;8.60;99.90;;;;;;5055069;28;20841;-82
2023/04/04 11:35:45;;;;;;;0.10;0.10;;;8.50;99.90;;;;;;5053280;28;20238;-83
2023/04/04 11:38:15;;;;;;;0.10;0.10;;;8.60;99.90;;;;;;5057840;28;20214;-82
2023/04/04 11:40:51;;;;;;;0.10;0.10;;;8.50;99.90;;;;;;5063204;28;20195;-83
2023/04/04 11:43:19;;;;;;;0.10;0.10;;;8.50;99.90;;;;;;5058752;28;20211;-82
2023/04/04 11:45:45;;;;;;;0.43;0.43;;;8.30;99.90;;;;;;5054957;28;20254;-82
2023/04/04 11:48:16;;;;;;;0.10;0.10;;;8.40;99.90;;;;;;5061529;28;20223;-82
2023/04/04 11:50:42;;;;;;;0.10;0.10;;;8.10;99.90;;;;;;5061095;28;20175;-81
2023/04/04 11:53:09;;;;;;;0.10;0.10;;;8.20;99.90;;;;;;5058746;28;20232;-82
2023/04/04 11:55:41;;;;;;;0.10;0.10;;;8.30;99.90;;;;;;5061064;28;20199;-82
2023/04/04 11:58:16;;;;;;;0.10;0.10;;;8.50;99.90;;;;;;5059118;28;20195;-83
2023/04/04 12:00:42;;;;;;;0.10;0.10;;;8.30;99.90;;;;;;5058200;28;20603;-82
2023/04/04 12:03:11;;;;;;;0.10;0.10;;;8.70;99.90;;;;;;5059505;28;20230;-82
2023/04/04 12:05:41;;;;;;;0.10;0.10;;;9.20;99.90;;;;;;5061127;28;20205;-82
2023/04/04 12:08:09;;;;;;;0.10;0.10;;;9.00;99.90;;;;;;5056000;28;20190;-83
2023/04/04 12:10:36;;;;;;;0.10;0.10;;;8.70;99.90;;;;;;5060088;28;20184;-82
2023/04/04 12:13:06;;;;;;;0.10;0.10;;;9.20;99.90;;;;;;5060496;28;20684;-82
2023/04/04 12:15:33;;;;;;;0.10;0.10;;;8.60;99.90;;;;;;5060339;28;20191;-82
2023/04/04 12:17:59;;;;;;;0.00;0.00;;;8.50;99.90;;;;;;5056757;28;20180;-83
2023/04/04 12:20:25;;;;;;;0.10;0.10;;;8.80;99.90;;;;;;5054193;28;20527;-81
2023/04/04 12:22:51;;;;;;;0.10;0.10;;;8.80;99.90;;;;;;5064872;28;20215;-80
2023/04/04 12:25:20;;;;;;;0.10;0.10;;;9.20;99.90;;;;;;5056561;28;20220;-81
2023/04/04 12:27:47;;;;;;;0.10;0.10;;;9.50;99.90;;;;;;5061925;28;20212;-82
2023/04/04 12:30:14;;;;;;;0.10;0.10;;;9.90;99.90;;;;;;5060359;28;20227;-81
2023/04/04 12:32:45;;;;;;;0.10;0.10;;;10.00;99.90;;;;;;5060402;28;20792;-82
2023/04/04 12:35:12;;;;;;;0.10;0.10;;;10.00;99.90;;;;;;5053960;28;20427;-81
2023/04/04 12:37:39;;;;;;;0.10;0.10;;;9.60;99.90;;;;;;5045014;28;20185;-82
2023/04/04 12:40:06;;;;;;;0.10;0.10;;;9.60;99.90;;;;;;5045142;28;20277;-82
2023/04/04 12:42:33;;;;;;;0.10;0.10;;;9.50;99.90;;;;;;5042694;28;22240;-80
2023/04/04 12:45:02;;;;;;;0.10;0.10;;;8.90;99.90;;;;;;5049697;28;20234;-83
2023/04/04 12:47:30;;;;;;;0.20;0.20;;;9.20;99.90;;;;;;5053704;28;20187;-80
2023/04/04 12:49:56;;;;;;;0.10;0.10;;;8.70;99.90;;;;;;5054682;28;20186;-81
2023/04/04 12:52:31;;;;;;;0.10;0.10;;;9.20;99.90;;;;;;5057628;28;20205;-82
2023/04/04 12:55:09;;;;;;;0.10;0.10;;;9.50;99.90;;;;;;5058960;28;20245;-82
2023/04/04 12:57:38;;;;;;;0.10;0.10;;;9.80;99.90;;;;;;5060090;28;20233;-81
2023/04/04 13:00:06;;;;;;;0.10;0.10;;;9.50;99.90;;;;;;5056958;28;20191;-82